Elizabeth City Regional Airport & Coast Guard Air Station Elizabeth City US
ICAO: KECG
IATA: ECG
Category: Medium
Scheduled Services: No

Elevation: 12 ft
TransAlt. 18000 ft.

Airport Communications:
NORFOLK APP/DEP:119.55
AIR:34.5
ASOS:118.525
CTAF:120.5
GND:121.9
TWR:120.5
UNICOM:122.95

KECG Zoom In..

Runways:

(A) RW 01 length 4518 ft width 150 ft
---- / hdg 9

(B) RW 10 length 7219 ft width 150 ft
ILS 111.35 / hdg 99

(C) RW 19 length 4518 ft width 150 ft
---- / hdg 189

(D) RW 28 length 7219 ft width 150 ft
---- / hdg 279

Location; KECG
Day. 22 / Time. 01.54 Zulu
* Altimeter: 30.15
* Temperature: 21° c. 69.8°f.
* Wind from: 050° Speed 08 kn.
Dewpoint: 20° c.
Visibility: 10 Statute Miles.
Clouds: Overcast 800 ft.

KECG 220154Z 05008KT 10SM OVC008 21/20 A3015 RMK AO2 SLP208 T02060200


Wind From 050°
Speed 08 kn.

 
 
jpsmedia.com for Web Design SOUNDCLOUD worldairports.se 2018   terms of use